Carlsbad Station Data

Red Flag Warning: No
Fire Weather Zone: 243
SDGE Region: North Coast
Lat/Lon: 33.137/-117.327

Observations

Time Wind Speed/Gust Temp(F) RH Fuel Moist Fuel Temp(F) Dewpt(F) Tmax(F) Tmin(F) Accum Precip 10-min Precip SL Press(mb)
5/24 8:20am 253 3 G 6 58° 94% - - 56° 61° 58° - - 1009.0
5/24 8:10am 245 4 G 7 58° 93% - - 56° 61° 58° - - 1010.0
5/24 8:00am 248 4 G 7 59° 93% - - 57° 61° 58.1° - - 1009.0
5/24 7:50am 329 4 G 6 59° 93% - - 57° 61° 58.1° - - 1009.0
5/24 7:40am 327 3 G 6 59° 93% - - 56° 61° 58.2° - - 1009.0
5/24 7:30am 315 3 G 4 59° 92% - - 56° 61° 58.2° - - 1009.0
5/24 7:20am 343 2 G 4 59° 92% - - 56° 61° 58.2° - - 1009.0
5/24 7:10am 300 3 G 5 59° 92% - - 56° 61° 58.2° - - 1009.0
5/24 7:00am 238 5 G 8 59° 92% - - 56° 61° 58.2° - - 1009.0
5/24 6:50am 257 4 G 8 59° 91% - - 56° 61° 58.4° - - 1009.0
5/24 6:40am 258 4 G 7 59° 91% - - 56° 61° 58.4° - - 1009.0
5/24 6:30am 241 6 G 9 59° 90% - - 56° 61° 58.5° - - 1009.0
5/24 6:20am 240 6 G 9 59° 90% - - 56° 61° 58.9° - - 1009.0
5/24 6:10am 244 3 G 7 59° 90% - - 56° 61° 58.9° - - 1008.0
5/24 6:00am 243 4 G 6 59° 90% - - 57° 61° 59° - - 1008.0
5/24 5:50am 236 4 G 6 60° 90% - - 57° 61° 59° - - 1008.0
5/24 5:40am 236 4 G 6 60° 90% - - 57° 61° 59° - - 1008.0
5/24 5:30am 198 4 G 6 60° 90% - - 57° 61° 59° - - 1008.0
5/24 5:20am 194 4 G 6 60° 90% - - 57° 61° 59° - - 1008.0
5/24 5:10am 283 1 G 2 60° 90% - - 57° 61° 59° - - 1008.0
5/24 5:00am 322 1 G 3 60° 90% - - 57° 61° 59° - - 1008.0
5/24 4:50am 16 1 G 2 60° 90% - - 57° 61° 59° - - 1008.0
5/24 4:40am 57 2 G 3 60° 90% - - 57° 61° 59° - - 1008.0
5/24 4:30am 78 2 G 6 59° 90% - - 56° 61° 59° - - 1008.0
5/24 4:20am 41 4 G 6 59° 90% - - 57° 61° 59° - - 1009.0
5/24 4:10am 329 1 G 5 59° 90% - - 56° 61° 59° - - 1009.0
5/24 4:00am 316 2 G 4 59° 90% - - 57° 61° 59.1° - - 1009.0
5/24 3:50am 298 2 G 4 60° 90% - - 57° 61° 59.2° - - 1009.0
5/24 3:40am 287 2 G 4 60° 89% - - 57° 61° 59.3° - - 1009.0
5/24 3:30am 209 2 G 3 60° 90% - - 57° 61° 59.3° - - 1009.0
5/24 3:20am 239 4 G 7 60° 90% - - 57° 61° 59.3° - - 1009.0
5/24 3:10am 239 4 G 6 60° 89% - - 57° 61° 59.3° - - 1009.0
5/24 3:00am 259 4 G 6 60° 89% - - 57° 61° 59.4° - - 1009.0
5/24 2:50am 272 3 G 6 60° 89% - - 57° 61° 59.4° - - 1009.0
5/24 2:40am 279 3 G 6 60° 89% - - 57° 61° 59.4° - - 1009.0
5/24 2:30am 274 3 G 5 60° 89% - - 57° 61° 59.4° - - 1009.0
5/24 2:20am 309 2 G 4 60° 89% - - 57° 61° 59.4° - - 1009.0
5/24 2:10am 318 2 G 3 60° 89% - - 57° 61° 59.4° - - 1009.0
5/24 2:00am 307 2 G 3 60° 89% - - 57° 61° 59.4° - - 1009.0
5/24 1:50am 7 2 G 3 60° 90% - - 57° 61° 59.4° - - 1009.0
5/24 1:40am 62 1 G 2 60° 90% - - 57° 60.9° 59.4° - - 1009.0
5/24 1:30am 9 3 G 6 60° 90% - - 57° 60.9° 59.4° - - 1009.0
5/24 1:20am 82 3 G 5 60° 90% - - 58° 60.8° 59.4° - - 1010.0
5/24 1:10am 27 3 G 5 60° 91% - - 57° 60.7° 59.4° - - 1010.0
5/24 1:00am 354 3 G 5 60° 92% - - 57° 60.4° 59.4° - - 1010.0
5/24 12:50am 129 1 G 2 60° 92% - - 58° 60.4° 59.4° - - 1010.0
5/24 12:40am 92 1 G 2 60° 92% - - 58° 60.4° 59.4° - - 1010.0
5/24 12:30am 45 3 G 5 60° 92% - - 57° 60.2° 59.4° - - 1010.0
5/24 12:20am 10 3 G 5 60° 92% - - 58° 60.2° 59.5° - - 1010.0
5/24 12:10am 346 2 G 4 60° 92% - - 58° 60.2° 59.5° - - 1010.0
5/24 12:00am 302 4 G 5 60° 92% - - 58° 67.5° 59.5° - - 1011.0
5/23 11:50pm 278 3 G 5 60° 92% - - 58° 67.5° 59.5° - - 1010.0
5/23 11:40pm 304 2 G 5 60° 92% - - 58° 67.5° 59.5° - - 1010.0
5/23 11:30pm 313 4 G 7 60° 92% - - 58° 67.5° 59.5° - - 1010.0
5/23 11:20pm 322 3 G 7 60° 92% - - 58° 67.5° 59.7° - - 1010.0
5/23 11:10pm 274 2 G 5 60° 92% - - 58° 67.5° 59.9° - - 1010.0
5/23 11:00pm 17 2 G 4 60° 91% - - 58° 67.5° 59.9° - - 1010.0
5/23 10:50pm 300 4 G 7 60° 91% - - 58° 67.5° 60° - - 1010.0
5/23 10:40pm 218 3 G 5 61° 90% - - 58° 67.5° 60° - - 1010.0
5/23 10:30pm 276 2 G 5 61° 90% - - 58° 67.5° 60° - - 1010.0
5/23 10:20pm 276 2 G 4 61° 90% - - 58° 67.5° 60° - - 1010.0
5/23 10:10pm 301 3 G 5 61° 89% - - 58° 67.5° 60° - - 1010.0
5/23 10:00pm 303 3 G 5 61° 89% - - 58° 67.5° 60° - - 1010.0
5/23 9:50pm 256 2 G 5 61° 88% - - 58° 67.5° 60° - - 1010.0
5/23 9:40pm 212 1 G 5 61° 88% - - 58° 67.5° 60° - - 1010.0
5/23 9:30pm 213 3 G 4 61° 88% - - 58° 67.5° 60° - - 1010.0
5/23 9:20pm 229 3 G 5 61° 88% - - 58° 67.5° 60° - - 1010.0
5/23 9:10pm 226 4 G 5 61° 88% - - 58° 67.5° 60° - - 1010.0
5/23 9:00pm 237 3 G 5 61° 88% - - 58° 67.5° 60° - - 1010.0
5/23 8:50pm 221 4 G 5 61° 88% - - 58° 67.5° 60° - - 1010.0
5/23 8:40pm 221 4 G 6 62° 87% - - 58° 67.5° 60° - - 1010.0
5/23 8:30pm 228 4 G 6 62° 87% - - 58° 67.5° 60° - - 1010.0
5/23 8:20pm 252 3 G 6 61° 87% - - 58° 67.5° 60° - - 1010.0
5/23 8:10pm 258 4 G 5 62° 87% - - 58° 67.5° 60° - - 1010.0
5/23 8:00pm 264 3 G 5 62° 87% - - 58° 67.5° 60° - - 1010.0
5/23 7:50pm 264 3 G 4 62° 86% - - 58° 67.5° 60° - - 1010.0
5/23 7:40pm 274 3 G 4 62° 86% - - 58° 67.5° 60° - - 1010.0
5/23 7:30pm 301 4 G 5 62° 86% - - 58° 67.5° 60° - - 1010.0
5/23 7:20pm 284 4 G 6 62° 85% - - 58° 67.5° 60° - - 1010.0
5/23 7:10pm 273 4 G 7 62° 84% - - 58° 67.5° 60° - - 1009.0
5/23 7:00pm 280 5 G 8 62° 84% - - 58° 67.5° 60° - - 1010.0
5/23 6:50pm 283 5 G 9 63° 84% - - 58° 67.5° 60° - - 1010.0
5/23 6:40pm 275 5 G 8 63° 84% - - 58° 67.5° 60° - - 1010.0
5/23 6:30pm 279 5 G 7 63° 84% - - 58° 67.5° 60° - - 1010.0
5/23 6:20pm 278 6 G 9 63° 84% - - 58° 67.5° 60° - - 1010.0
5/23 6:10pm 283 6 G 10 63° 84% - - 58° 67.5° 60° - - 1010.0
5/23 6:00pm 287 7 G 10 63° 84% - - 58° 67.5° 60° - - 1010.0
5/23 5:50pm 284 7 G 11 63° 83% - - 58° 67.5° 60° - - 1010.0
5/23 5:40pm 288 8 G 11 64° 82% - - 58° 67.5° 60° - - 1010.0
5/23 5:30pm 288 7 G 10 63° 83% - - 58° 67.5° 60° - - 1010.0
5/23 5:20pm 281 6 G 10 63° 84% - - 58° 67.5° 60° - - 1010.0
5/23 5:10pm 276 6 G 10 63° 84% - - 58° 67.5° 60° - - 1010.0
5/23 5:00pm 275 6 G 9 63° 84% - - 58° 67.5° 60° - - 1010.0
5/23 4:50pm 268 7 G 10 62° 85% - - 58° 67.5° 60° - - 1010.0
5/23 4:40pm 258 7 G 12 62° 86% - - 57° 67.5° 60° - - 1010.0
5/23 4:30pm 256 8 G 11 61° 84% - - 57° 67.5° 60° - - 1010.0
5/23 4:20pm 252 8 G 11 62° 83% - - 57° 67.5° 60° - - 1010.0
5/23 4:10pm 253 8 G 12 62° 82% - - 56° 67.5° 60° - - 1011.0
5/23 4:00pm 246 8 G 11 62° 81% - - 56° 67.5° 60° - - 1011.0
5/23 3:50pm 246 7 G 10 62° 80% - - 56° 67.5° 60° - - 1011.0
5/23 3:40pm 269 6 G 10 63° 79% - - 56° 67.5° 60° - - 1011.0
5/23 3:30pm 276 6 G 9 63° 79% - - 56° 67.5° 60° - - 1011.0
5/23 3:20pm 253 6 G 8 63° 79% - - 56° 67.5° 60° - - 1011.0
5/23 3:10pm 242 7 G 10 63° 79% - - 56° 67.5° 60° - - 1011.0
5/23 3:00pm 256 5 G 9 64° 77% - - 57° 67.5° 60° - - 1011.0
5/23 2:50pm 247 4 G 7 64° 77% - - 57° 67.5° 60° - - 1011.0
5/23 2:40pm 345 3 G 6 64° 77% - - 57° 67.5° 60° - - 1011.0
5/23 2:30pm 256 2 G 5 64° 79% - - 57° 67.5° 60° - - 1011.0
5/23 2:20pm 262 2 G 6 62° 83% - - 56° 67.5° 60° - - 1012.0
5/23 2:10pm 261 6 G 9 62° 83% - - 56° 67.5° 60° - - 1012.0
5/23 2:00pm 256 6 G 11 62° 83% - - 56° 67.5° 60° - - 1012.0
5/23 1:50pm 281 7 G 11 62° 82% - - 57° 67.5° 60° - - 1012.0
5/23 1:40pm 269 8 G 10 61° 84% - - 56° 67.5° 60° - - 1012.0
5/23 1:30pm 278 7 G 11 61° 84% - - 57° 67.5° 60° - - 1012.0
5/23 1:20pm 266 8 G 11 61° 85% - - 57° 67.5° 60° - - 1012.0
5/23 1:10pm 267 8 G 12 61° 86% - - 57° 67.5° 60° - - 1012.0
5/23 1:00pm 270 8 G 12 62° 85% - - 58° 67.5° 60° - - 1012.0
5/23 12:50pm 280 7 G 11 62° 85% - - 58° 67.5° 60° - - 1012.0
5/23 12:40pm 269 7 G 11 62° 85% - - 58° 67.5° 60° - - 1012.0
5/23 12:30pm 275 8 G 12 63° 84% - - 58° 67.5° 60° - - 1012.0
5/23 12:20pm 275 8 G 14 62° 85% - - 58° 67.5° 60° - - 1012.0
5/23 12:10pm 281 8 G 12 63° 85% - - 58° 67.5° 60° - - 1012.0
5/23 12:00pm 267 9 G 13 62° 85% - - 58° 67.5° 60° - - 1012.0
5/23 11:50am 260 8 G 12 62° 85% - - 58° 67.5° 60° - - 1012.0
5/23 11:40am 255 9 G 13 62° 85% - - 58° 67.5° 60° - - 1012.0
5/23 11:30am 258 9 G 14 62° 86% - - 58° 67.5° 60° - - 1012.0
5/23 11:20am 256 9 G 13 62° 87% - - 58° 67.5° 60° - - 1012.0
5/23 11:10am 262 9 G 13 62° 87% - - 58° 67.5° 60° - - 1012.0
5/23 11:00am 260 9 G 14 62° 86% - - 58° 67.5° 60° - - 1011.0
5/23 10:50am 256 9 G 12 63° 86% - - 58° 67.5° 60° - - 1011.0
5/23 10:40am 259 7 G 11 63° 86% - - 58° 67.5° 60° - - 1011.0
5/23 10:30am 262 7 G 11 63° 85% - - 58° 67.5° 60° - - 1011.0
5/23 10:20am 244 8 G 12 63° 85% - - 58° 67.5° 60° - - 1011.0
5/23 10:10am 233 9 G 13 63° 85% - - 58° 67.5° 60° - - 1011.0
5/23 10:00am 245 8 G 11 64° 83% - - 59° 67.5° 60° - - 1011.0
5/23 9:50am 257 8 G 10 64° 82% - - 58° 67.5° 60° - - 1011.0
5/23 9:40am 252 7 G 10 65° 80% - - 58° 67.5° 60° - - 1011.0
5/23 9:30am 268 5 G 8 65° 79% - - 59° 67.5° 60° - - 1011.0
5/23 9:20am 264 5 G 7 65° 78% - - 58° 67.5° 60° - - 1011.0
5/23 9:10am 177 2 G 4 67° 75% - - 58° 67.5° 60° - - 1011.0
5/23 9:00am 81 1 G 3 66° 76% - - 58° 67° 60° - - 1011.0
5/23 8:50am 48 2 G 5 65° 78% - - 58° 66.1° 60° - - 1011.0
5/23 8:40am 24 4 G 6 65° 80% - - 58° 65.5° 60° - - 1011.0
5/23 8:30am 10 4 G 6 64° 83% - - 58° 64.6° 60° - - 1011.0
5/23 8:20am 21 4 G 7 63° 84% - - 58° 63.8° 60° - - 1011.0
5/23 8:10am 5 3 G 6 62° 88% - - 58° 62.9° 60° - - 1011.0
5/23 8:00am 12 2 G 4 61° 89% - - 58° 61.9° 60° - - 1011.0
5/23 7:50am 339 3 G 5 61° 89% - - 58° 61.8° 60° - - 1011.0
5/23 7:40am 310 1 G 5 61° 90% - - 58° 61.8° 60° - - 1011.0
5/23 7:30am 245 1 G 3 61° 90% - - 58° 61.8° 60° - - 1011.0
5/23 7:20am 280 2 G 5 60° 90% - - 58° 61.8° 60° - - 1011.0
5/23 7:10am 297 4 G 6 60° 90% - - 58° 61.8° 60° - - 1011.0
5/23 7:00am 248 3 G 5 61° 90% - - 58° 61.8° 60° - - 1011.0
5/23 6:50am 264 3 G 5 61° 90% - - 58° 61.8° 60° - - 1011.0
5/23 6:40am 339 2 G 5 60° 90% - - 57° 61.8° 60° - - 1011.0
5/23 6:30am 315 3 G 5 60° 90% - - 57° 61.8° 60° - - 1011.0
5/23 6:20am 335 2 G 5 60° 90% - - 57° 61.8° 60.1° - - 1011.0
5/23 6:10am 344 2 G 5 60° 90% - - 57° 61.8° 60.1° - - 1011.0
5/23 6:00am 330 3 G 6 61° 89% - - 57° 61.8° 60.2° - - 1011.0